ES-0068 weather

CLOSED Aeròdrom de Can Moragues
Sabadell, Barcelona, Spain

Public forecast

Using degrees Celsius for public forecast. Weather courtesy of forecast.io.

Closest aviation weather report (METAR) to Aeròdrom de Can Moragues

Closest report is Sabadell Airport, 3.6 nm (6.7 km) S. Retrieved 2020/08/06 19:30 UTC (6 minutes ago):

LELL 061930Z AUTO VRB02KT CAVOK 28/18 Q1016

Closest aviation forecast (TAF) to Aeròdrom de Can Moragues

Closest forecast is Sabadell Airport, 3.6 nm (6.7 km) S. Retrieved 2020/08/06 15:31 UTC (4 hours ago):

TAF LELL 061400Z 0615/0715 16010KT 9999 FEW040 TX33/0713Z TN20/0705Z BECMG 0619/0621 27007KT BECMG 0711/0713 20011KT